createdAt,value
2018-06-08T00:00:19.432Z,55.03
2018-06-08T00:02:48.357Z,52.33
2018-06-08T00:05:17.310Z,41.70
2018-06-08T00:07:46.190Z,38.70
2018-06-08T00:10:15.104Z,40.20
2018-06-08T00:12:44.017Z,55.00
2018-06-08T00:15:13.052Z,56.07
2018-06-08T00:17:42.166Z,55.10
2018-06-08T00:20:11.687Z,47.77
2018-06-08T00:22:40.738Z,45.70
2018-06-08T00:25:09.694Z,35.60
2018-06-08T00:27:38.755Z,50.90
2018-06-08T00:30:07.884Z,46.27
2018-06-08T00:32:37.098Z,49.73
2018-06-08T00:35:06.036Z,38.70
2018-06-08T00:37:41.635Z,33.17
2018-06-08T00:40:10.629Z,31.70
2018-06-08T00:42:39.709Z,37.67
2018-06-08T00:45:08.738Z,41.10
2018-06-08T00:47:37.737Z,35.13
2018-06-08T00:50:06.866Z,37.47
2018-06-08T00:52:35.938Z,40.37
2018-06-08T00:55:05.182Z,34.07
2018-06-08T00:57:34.150Z,38.13
2018-06-08T01:00:03.209Z,42.20
2018-06-08T01:02:32.211Z,36.80
2018-06-08T01:05:01.401Z,33.57
2018-06-08T01:07:30.374Z,45.37
2018-06-08T01:09:59.376Z,41.60
2018-06-08T01:12:29.333Z,30.40
2018-06-08T01:15:01.179Z,34.13
2018-06-08T01:17:29.904Z,39.17
2018-06-08T01:19:58.654Z,31.53
2018-06-08T01:22:27.469Z,42.07
2018-06-08T01:24:56.176Z,43.70
2018-06-08T01:27:25.102Z,47.63
2018-06-08T01:29:54.072Z,52.30
2018-06-08T01:32:23.024Z,50.17
2018-06-08T01:34:52.018Z,25.17
2018-06-08T01:37:20.986Z,55.17
2018-06-08T01:39:49.973Z,40.40
2018-06-08T01:42:18.657Z,57.70
2018-06-08T01:44:47.088Z,58.97
2018-06-08T01:47:15.806Z,63.27
2018-06-08T01:49:44.829Z,65.30
2018-06-08T01:52:13.866Z,62.77
2018-06-08T01:54:42.882Z,23.43
2018-06-08T01:57:12.039Z,54.70
2018-06-08T01:59:41.036Z,48.73
2018-06-08T02:02:09.989Z,71.33
2018-06-08T02:04:38.982Z,60.80
2018-06-08T02:07:07.958Z,65.80
2018-06-08T02:09:37.143Z,69.20
2018-06-08T02:12:06.146Z,76.57
2018-06-08T02:14:35.107Z,86.30
2018-06-08T02:17:04.040Z,119.53
2018-06-08T02:19:33.012Z,131.50
2018-06-08T02:22:01.998Z,120.90
2018-06-08T02:24:30.673Z,120.03
2018-06-08T02:26:59.409Z,123.03
2018-06-08T02:29:28.487Z,122.30
2018-06-08T02:31:57.544Z,87.87
2018-06-08T02:34:26.558Z,92.90
2018-06-08T02:36:55.599Z,74.70
2018-06-08T02:39:24.714Z,62.97
2018-06-08T02:41:53.694Z,55.53
2018-06-08T02:44:22.806Z,65.27
2018-06-08T02:46:51.546Z,71.00
2018-06-08T02:49:20.215Z,58.63
2018-06-08T02:51:49.178Z,58.33
2018-06-08T02:54:18.194Z,55.93
2018-06-08T02:56:47.162Z,49.47
2018-06-08T02:59:16.156Z,46.43
2018-06-08T03:01:45.097Z,42.57
2018-06-08T03:04:14.214Z,39.20
2018-06-08T03:06:43.170Z,45.70
2018-06-08T03:09:12.126Z,38.03
2018-06-08T03:11:41.055Z,40.10
2018-06-08T03:14:10.030Z,37.40
2018-06-08T03:16:38.975Z,33.83
2018-06-08T03:19:08.191Z,36.23
2018-06-08T03:21:36.861Z,33.67
2018-06-08T03:24:05.648Z,27.73
2018-06-08T03:26:34.583Z,27.83
2018-06-08T03:29:03.584Z,28.13
2018-06-08T03:31:32.593Z,25.97
2018-06-08T03:34:01.658Z,25.80
2018-06-08T03:36:30.581Z,27.87
2018-06-08T03:38:59.790Z,26.17
2018-06-08T03:41:29.230Z,27.53
2018-06-08T03:43:58.159Z,30.07
2018-06-08T03:46:27.133Z,24.53
2018-06-08T03:48:56.275Z,28.60
2018-06-08T03:51:25.177Z,30.10
2018-06-08T03:53:53.981Z,28.17
2018-06-08T03:56:22.737Z,30.73
2018-06-08T03:58:51.827Z,29.40
2018-06-08T04:01:20.907Z,22.00
2018-06-08T04:03:50.060Z,30.03
2018-06-08T04:06:19.074Z,31.90
2018-06-08T04:08:48.071Z,28.27
2018-06-08T04:11:17.002Z,29.03
2018-06-08T04:13:45.950Z,27.93
2018-06-08T04:16:14.664Z,26.40
2018-06-08T04:18:43.446Z,29.87
2018-06-08T04:21:12.491Z,25.80
2018-06-08T04:23:41.562Z,29.70
2018-06-08T04:26:10.574Z,27.47
2018-06-08T04:28:39.489Z,21.90
2018-06-08T04:31:08.442Z,16.77
2018-06-08T04:33:37.382Z,18.43
2018-06-08T04:36:06.407Z,23.63
2018-06-08T04:38:35.398Z,27.73
2018-06-08T04:41:04.312Z,26.03
2018-06-08T04:43:33.400Z,19.90
2018-06-08T04:46:02.566Z,29.17
2018-06-08T04:48:31.538Z,23.37
2018-06-08T04:51:00.602Z,23.87
2018-06-08T04:53:29.525Z,26.30
2018-06-08T04:55:58.487Z,22.20
2018-06-08T04:58:27.489Z,23.17
2018-06-08T05:00:56.476Z,22.77
2018-06-08T05:03:25.442Z,21.63
2018-06-08T05:05:54.358Z,20.77
2018-06-08T05:08:23.369Z,27.17
2018-06-08T05:10:52.620Z,24.53
2018-06-08T05:13:21.550Z,26.33
2018-06-08T05:15:50.592Z,22.43
2018-06-08T05:18:19.547Z,18.07
2018-06-08T05:20:48.489Z,17.87
2018-06-08T05:23:17.460Z,19.60
2018-06-08T05:25:46.390Z,21.07
2018-06-08T05:28:16.280Z,22.67
2018-06-08T05:30:45.238Z,16.33
2018-06-08T05:33:14.386Z,16.03
2018-06-08T05:35:43.497Z,25.70
2018-06-08T05:38:12.551Z,21.83
2018-06-08T05:40:41.534Z,17.40
2018-06-08T05:43:10.730Z,13.37
2018-06-08T05:45:39.793Z,17.33
2018-06-08T05:48:08.795Z,18.40
2018-06-08T05:50:38.586Z,18.27
2018-06-08T05:53:07.531Z,23.47
2018-06-08T05:55:36.459Z,21.10
2018-06-08T05:58:05.405Z,20.63
2018-06-08T06:00:34.351Z,21.33
2018-06-08T06:03:03.482Z,19.23
2018-06-08T06:05:32.441Z,17.27
2018-06-08T06:08:01.400Z,21.63
2018-06-08T06:10:30.026Z,17.83
2018-06-08T06:12:59.004Z,15.60
2018-06-08T06:15:27.939Z,17.90
2018-06-08T06:17:56.916Z,19.10
2018-06-08T06:20:25.831Z,18.87
2018-06-08T06:22:54.815Z,15.47
2018-06-08T06:25:23.827Z,17.77
2018-06-08T06:27:52.819Z,18.17
2018-06-08T06:30:21.785Z,17.23
2018-06-08T06:32:50.917Z,16.80
2018-06-08T06:35:19.867Z,15.23
2018-06-08T06:37:49.262Z,15.47
2018-06-08T06:40:17.933Z,21.73
2018-06-08T06:42:46.769Z,16.27
2018-06-08T06:45:16.563Z,14.77
2018-06-08T06:47:45.519Z,19.90
2018-06-08T06:50:14.248Z,16.73
2018-06-08T06:52:42.973Z,17.13
2018-06-08T06:55:12.191Z,18.97
2018-06-08T06:57:41.237Z,19.17
2018-06-08T07:00:10.277Z,17.77
2018-06-08T07:02:39.237Z,18.80
2018-06-08T07:05:11.280Z,18.43
2018-06-08T07:07:40.196Z,19.17
2018-06-08T07:10:09.207Z,16.77
2018-06-08T07:12:38.130Z,18.67
2018-06-08T07:15:07.366Z,15.23
2018-06-08T07:17:36.335Z,14.73
2018-06-08T07:20:05.427Z,18.20
2018-06-08T07:22:34.217Z,16.50
2018-06-08T07:25:03.019Z,21.23
2018-06-08T07:27:31.954Z,19.47
2018-06-08T07:30:01.150Z,17.53
2018-06-08T07:32:30.182Z,17.60
2018-06-08T07:34:59.106Z,18.63
2018-06-08T07:37:28.069Z,17.63
2018-06-08T07:39:57.174Z,16.13
2018-06-08T07:42:26.050Z,18.77
2018-06-08T07:44:55.026Z,14.37
2018-06-08T07:47:24.022Z,14.00
2018-06-08T07:49:53.244Z,14.50
2018-06-08T07:52:22.194Z,15.67
2018-06-08T07:54:51.146Z,16.13
2018-06-08T07:57:20.095Z,13.93
2018-06-08T07:59:49.083Z,13.87
2018-06-08T08:02:18.295Z,14.77
2018-06-08T08:04:46.941Z,13.53
2018-06-08T08:07:15.654Z,13.43
2018-06-08T08:09:44.584Z,16.37
2018-06-08T08:12:13.655Z,13.03
2018-06-08T08:14:42.582Z,12.80
2018-06-08T08:17:11.737Z,16.13
2018-06-08T08:19:40.697Z,18.63
2018-06-08T08:22:09.653Z,13.80
2018-06-08T08:24:38.608Z,13.30
2018-06-08T08:27:07.535Z,12.83
2018-06-08T08:29:36.414Z,15.90
2018-06-08T08:32:05.398Z,13.07
2018-06-08T08:34:34.301Z,13.03
2018-06-08T08:37:03.430Z,12.50
2018-06-08T08:39:32.370Z,12.93
2018-06-08T08:42:01.294Z,13.23
2018-06-08T08:44:30.208Z,12.60
2018-06-08T08:46:59.322Z,13.70
2018-06-08T08:49:27.984Z,13.57
2018-06-08T08:51:56.783Z,16.20
2018-06-08T08:54:25.862Z,13.43
2018-06-08T08:56:54.924Z,15.40
2018-06-08T08:59:23.885Z,20.23
2018-06-08T09:01:52.825Z,16.00
2018-06-08T09:04:21.825Z,18.00
2018-06-08T09:06:50.741Z,15.07
2018-06-08T09:09:19.662Z,17.90
2018-06-08T09:11:48.593Z,17.97
2018-06-08T09:14:17.693Z,16.97
2018-06-08T09:16:46.658Z,17.57
2018-06-08T09:19:15.649Z,16.17
2018-06-08T09:21:44.670Z,17.93
2018-06-08T09:24:13.610Z,16.23
2018-06-08T09:26:42.517Z,20.57
2018-06-08T09:29:11.484Z,16.63
2018-06-08T09:31:40.422Z,17.30
2018-06-08T09:34:09.485Z,14.43
2018-06-08T09:36:38.486Z,16.37
2018-06-08T09:39:07.679Z,17.53
2018-06-08T09:41:36.653Z,17.83
2018-06-08T09:44:05.550Z,15.90
2018-06-08T09:46:34.491Z,12.73
2018-06-08T09:49:03.484Z,14.43
2018-06-08T09:51:32.455Z,16.30
2018-06-08T09:54:01.370Z,12.70
2018-06-08T09:56:30.348Z,14.23
2018-06-08T09:58:59.407Z,16.63
2018-06-08T10:01:28.418Z,17.07
2018-06-08T10:03:57.458Z,16.73
2018-06-08T10:06:26.508Z,14.83
2018-06-08T10:08:55.733Z,16.70
2018-06-08T10:11:24.661Z,17.50
2018-06-08T10:13:53.554Z,17.17
2018-06-08T10:16:22.473Z,18.47
2018-06-08T10:18:51.383Z,18.23
2018-06-08T10:21:20.070Z,15.63
2018-06-08T10:23:48.855Z,13.97
2018-06-08T10:26:18.162Z,16.43
2018-06-08T10:28:47.157Z,18.03
2018-06-08T10:31:16.101Z,18.17
2018-06-08T10:33:45.059Z,17.73
2018-06-08T10:36:14.082Z,20.10
2018-06-08T10:38:43.345Z,15.73
2018-06-08T10:41:12.314Z,21.93
2018-06-08T10:43:41.266Z,18.93
2018-06-08T10:46:10.153Z,17.03
2018-06-08T10:48:39.194Z,16.97
2018-06-08T10:51:08.204Z,17.33
2018-06-08T10:53:37.143Z,15.53
2018-06-08T10:56:06.183Z,16.27
2018-06-08T10:58:34.857Z,15.43
2018-06-08T11:01:03.781Z,15.57
2018-06-08T11:03:32.758Z,13.17
2018-06-08T11:06:01.824Z,13.77
2018-06-08T11:08:31.045Z,17.27
2018-06-08T11:11:01.154Z,17.57
2018-06-08T11:13:30.054Z,14.93
2018-06-08T11:15:59.270Z,13.97
2018-06-08T11:21:03.178Z,10.70
2018-06-08T11:23:31.853Z,12.63
2018-06-08T11:26:00.529Z,11.13
2018-06-08T11:28:29.427Z,10.17
2018-06-08T11:30:58.359Z,11.80
2018-06-08T11:33:27.287Z,12.00
2018-06-08T11:35:56.180Z,11.67
2018-06-08T11:38:25.276Z,11.57
2018-06-08T11:40:54.247Z,12.67
2018-06-08T11:43:23.195Z,12.73
2018-06-08T11:45:52.201Z,11.23
2018-06-08T11:48:21.071Z,15.70
2018-06-08T11:50:49.994Z,11.87
2018-06-08T11:53:19.155Z,18.67
2018-06-08T11:55:49.689Z,21.87
2018-06-08T11:58:18.666Z,19.53
2018-06-08T12:00:47.586Z,18.87
2018-06-08T12:03:16.545Z,19.23
2018-06-08T12:05:45.691Z,17.67
2018-06-08T12:08:14.638Z,16.97
2018-06-08T12:10:43.986Z,20.30
2018-06-08T12:13:12.921Z,17.87
2018-06-08T12:15:41.575Z,20.97
2018-06-08T12:20:45.624Z,18.10
2018-06-08T12:23:14.554Z,20.57
2018-06-08T12:25:43.619Z,23.67
2018-06-08T12:28:12.594Z,20.93
2018-06-08T12:30:41.638Z,24.60
2018-06-08T12:33:10.547Z,22.87
2018-06-08T12:35:39.639Z,29.03
2018-06-08T12:38:08.605Z,27.27
2018-06-08T12:40:37.567Z,26.97
2018-06-08T12:43:06.626Z,30.00
2018-06-08T12:45:35.695Z,26.80
2018-06-08T12:48:04.726Z,29.23
2018-06-08T12:50:33.716Z,27.27
2018-06-08T12:53:02.709Z,32.80
2018-06-08T12:55:32.401Z,27.83
2018-06-08T12:58:01.339Z,27.83
2018-06-08T13:00:30.321Z,28.83
2018-06-08T13:02:59.319Z,31.23
2018-06-08T13:05:28.325Z,28.07
2018-06-08T13:07:57.339Z,30.87
2018-06-08T13:10:26.372Z,33.60
2018-06-08T13:12:55.346Z,31.27
2018-06-08T13:15:24.287Z,29.57
2018-06-08T13:17:53.377Z,30.83
2018-06-08T13:20:22.388Z,31.10
2018-06-08T13:22:51.311Z,32.70
2018-06-08T13:25:20.322Z,31.77
2018-06-08T13:27:49.129Z,39.90
2018-06-08T13:30:18.114Z,41.87
2018-06-08T13:32:47.336Z,24.73
2018-06-08T13:35:16.479Z,39.97
2018-06-08T13:37:45.564Z,40.30
2018-06-08T13:40:14.509Z,37.00
2018-06-08T13:42:43.479Z,39.67
2018-06-08T13:45:12.746Z,40.63
2018-06-08T13:47:41.769Z,37.73
2018-06-08T13:50:10.794Z,40.47
2018-06-08T13:52:39.745Z,46.40
2018-06-08T13:55:08.462Z,47.07
2018-06-08T13:57:37.202Z,45.30
2018-06-08T14:00:06.257Z,46.93
2018-06-08T14:02:35.219Z,45.60
2018-06-08T14:05:04.422Z,46.73
2018-06-08T14:07:33.377Z,41.70
2018-06-08T14:10:02.377Z,40.30
2018-06-08T14:12:31.506Z,39.27
2018-06-08T14:15:00.586Z,39.77
2018-06-08T14:17:29.911Z,38.53
2018-06-08T14:19:58.799Z,36.70
2018-06-08T14:22:27.900Z,37.27
2018-06-08T14:24:56.941Z,37.97
2018-06-08T14:27:25.685Z,37.73
2018-06-08T14:29:54.437Z,40.50
2018-06-08T14:32:23.958Z,37.80
2018-06-08T14:34:53.212Z,39.90
2018-06-08T14:37:22.182Z,37.87
2018-06-08T14:39:51.541Z,36.03
2018-06-08T14:42:20.646Z,35.43
2018-06-08T14:44:49.799Z,36.60
2018-06-08T14:47:18.546Z,33.30
2018-06-08T14:49:47.422Z,36.57
2018-06-08T14:52:16.521Z,36.53
2018-06-08T14:54:46.568Z,38.93
2018-06-08T14:57:15.741Z,36.50
2018-06-08T14:59:44.736Z,37.17
2018-06-08T15:02:13.871Z,38.20
2018-06-08T15:04:42.926Z,37.23
2018-06-08T15:07:11.811Z,39.30
2018-06-08T15:09:40.941Z,42.27
2018-06-08T15:12:10.035Z,43.57
2018-06-08T15:14:39.040Z,34.40
2018-06-08T15:17:08.210Z,44.57
2018-06-08T15:19:37.286Z,41.37
2018-06-08T15:22:06.278Z,43.37
2018-06-08T15:24:35.387Z,40.27
2018-06-08T15:27:04.670Z,42.13
2018-06-08T15:29:33.669Z,43.50
2018-06-08T15:32:02.614Z,41.07
2018-06-08T15:34:31.743Z,45.63
2018-06-08T15:37:00.665Z,43.83
2018-06-08T15:39:29.718Z,43.97
2018-06-08T15:41:58.721Z,43.03
2018-06-08T15:44:27.640Z,51.20
2018-06-08T15:46:56.662Z,47.93
2018-06-08T15:49:25.646Z,36.67
2018-06-08T15:51:54.638Z,40.97
2018-06-08T15:54:23.618Z,42.73
2018-06-08T15:56:52.580Z,44.47
2018-06-08T15:59:21.493Z,44.50
2018-06-08T16:01:50.479Z,42.53
2018-06-08T16:04:19.695Z,37.90
2018-06-08T16:06:48.709Z,41.23
2018-06-08T16:09:17.715Z,38.33
2018-06-08T16:11:46.883Z,38.43
2018-06-08T16:14:15.538Z,38.80
2018-06-08T16:16:44.432Z,43.10
2018-06-08T16:19:13.543Z,46.73
2018-06-08T16:21:42.951Z,44.13
2018-06-08T16:24:11.893Z,52.00
2018-06-08T16:26:40.887Z,55.67
2018-06-08T16:29:09.920Z,46.13
2018-06-08T16:31:39.235Z,58.03
2018-06-08T16:34:08.184Z,60.13
2018-06-08T16:36:37.315Z,50.03
2018-06-08T16:39:07.524Z,50.60
2018-06-08T16:41:36.716Z,59.83
2018-06-08T16:44:06.112Z,54.33
2018-06-08T16:46:35.074Z,56.07
2018-06-08T16:49:04.257Z,46.80
2018-06-08T16:51:33.309Z,48.80
2018-06-08T16:54:02.310Z,51.47
2018-06-08T16:56:31.434Z,53.47
2018-06-08T16:59:00.540Z,45.80
2018-06-08T17:01:29.495Z,41.57
2018-06-08T17:03:58.566Z,52.33
2018-06-08T17:06:27.612Z,54.60
2018-06-08T17:08:56.538Z,54.33
2018-06-08T17:11:25.687Z,49.70
2018-06-08T17:13:54.631Z,49.07
2018-06-08T17:16:23.611Z,47.47
2018-06-08T17:18:52.609Z,47.53
2018-06-08T17:21:21.636Z,48.43
2018-06-08T17:23:50.845Z,45.93
2018-06-08T17:26:19.846Z,43.93
2018-06-08T17:28:48.975Z,41.67
2018-06-08T17:31:18.080Z,40.23
2018-06-08T17:33:47.218Z,36.77
2018-06-08T17:36:16.538Z,36.07
2018-06-08T17:38:45.566Z,38.80
2018-06-08T17:41:14.746Z,37.97
2018-06-08T17:43:43.772Z,35.67
2018-06-08T17:46:12.734Z,38.67
2018-06-08T17:48:41.466Z,38.23
2018-06-08T17:51:10.359Z,32.07
2018-06-08T17:53:39.858Z,33.33
2018-06-08T17:56:09.012Z,37.50
2018-06-08T17:58:41.802Z,30.47
2018-06-08T18:14:10.671Z,37.17
2018-06-08T18:16:39.943Z,29.57
2018-06-08T18:19:09.110Z,28.70
2018-06-08T18:21:38.163Z,30.23
2018-06-08T18:24:07.207Z,31.17
2018-06-08T18:26:36.180Z,27.90
2018-06-08T18:29:05.360Z,27.30
2018-06-08T18:31:34.678Z,30.03
2018-06-08T18:34:04.055Z,30.80
2018-06-08T18:36:33.073Z,28.07
2018-06-08T18:39:02.159Z,29.00
2018-06-08T18:41:31.207Z,29.40
2018-06-08T18:44:00.314Z,32.00
2018-06-08T18:46:29.719Z,30.23
2018-06-08T18:48:58.658Z,34.17
2018-06-08T18:51:27.772Z,32.37
2018-06-08T18:53:56.873Z,35.60
2018-06-08T18:56:25.873Z,22.53
2018-06-08T18:58:55.108Z,34.73
2018-06-08T19:01:24.225Z,28.57
2018-06-08T19:03:53.324Z,32.17
2018-06-08T19:06:22.524Z,30.67
2018-06-08T19:08:51.497Z,29.00
2018-06-08T19:11:20.520Z,35.80
2018-06-08T19:13:49.573Z,33.00
2018-06-08T19:16:18.550Z,31.77
2018-06-08T19:18:47.553Z,39.07
2018-06-08T19:21:16.602Z,32.60
2018-06-08T19:23:45.718Z,35.53
2018-06-08T19:26:14.858Z,30.60
2018-06-08T19:28:43.999Z,31.23
2018-06-08T19:31:13.122Z,36.50
2018-06-08T19:33:42.244Z,38.57
2018-06-08T19:36:11.364Z,39.40
2018-06-08T19:38:40.475Z,35.60
2018-06-08T19:41:09.511Z,37.00
2018-06-08T19:43:38.555Z,35.20
2018-06-08T19:46:07.522Z,36.47
2018-06-08T19:48:36.461Z,37.00
2018-06-08T19:51:05.421Z,40.60
2018-06-08T19:53:34.720Z,37.90
2018-06-08T19:56:03.746Z,23.20
2018-06-08T19:58:32.477Z,37.03
2018-06-08T20:01:01.007Z,36.43
2018-06-08T20:03:29.821Z,28.90
2018-06-08T20:05:58.832Z,35.47
2018-06-08T20:08:27.820Z,37.83
2018-06-08T20:10:56.817Z,35.07
2018-06-08T20:13:25.778Z,36.60
2018-06-08T20:15:54.522Z,37.47
2018-06-08T20:18:23.329Z,31.07
2018-06-08T20:20:52.457Z,38.43
2018-06-08T20:23:21.298Z,38.40
2018-06-08T20:25:50.052Z,29.07
2018-06-08T20:28:19.251Z,40.97
2018-06-08T20:30:48.206Z,31.77
2018-06-08T20:33:17.254Z,42.23
2018-06-08T20:35:46.343Z,41.87
2018-06-08T20:38:15.385Z,38.73
2018-06-08T20:40:44.326Z,41.07
2018-06-08T20:43:13.365Z,41.57
2018-06-08T20:45:42.315Z,26.57
2018-06-08T20:48:11.421Z,32.47
2018-06-08T20:50:40.519Z,39.23
2018-06-08T20:53:09.473Z,43.07
2018-06-08T20:55:38.449Z,37.23
2018-06-08T20:58:17.320Z,38.07
2018-06-08T21:00:46.276Z,42.17
2018-06-08T21:03:15.226Z,35.23
2018-06-08T21:05:44.208Z,34.57
2018-06-08T21:08:13.266Z,45.67
2018-06-08T21:10:42.242Z,45.77
2018-06-08T21:13:11.397Z,46.53
2018-06-08T21:15:40.425Z,43.60
2018-06-08T21:18:09.443Z,38.40
2018-06-08T21:20:38.419Z,29.63
2018-06-08T21:23:07.357Z,45.43
2018-06-08T21:25:36.495Z,43.03
2018-06-08T21:28:05.441Z,37.57
2018-06-08T21:30:34.491Z,42.73
2018-06-08T21:33:03.846Z,45.27
2018-06-08T21:35:32.803Z,39.17
2018-06-08T21:38:01.868Z,37.77
2018-06-08T21:40:30.939Z,31.90
2018-06-08T21:42:59.957Z,28.90
2018-06-08T21:45:28.911Z,41.57
2018-06-08T21:47:57.574Z,42.27
2018-06-08T21:50:26.426Z,36.90
2018-06-08T21:52:55.477Z,33.50
2018-06-08T21:55:24.603Z,40.90
2018-06-08T21:57:53.672Z,32.33
2018-06-08T22:00:22.670Z,39.70
2018-06-08T22:02:51.670Z,46.57
2018-06-08T22:05:20.620Z,48.73
2018-06-08T22:07:49.584Z,44.87
2018-06-08T22:10:18.561Z,41.07
2018-06-08T22:12:47.803Z,38.80
2018-06-08T22:15:16.894Z,45.50
2018-06-08T22:17:45.955Z,44.17
2018-06-08T22:20:14.962Z,30.93
2018-06-08T22:22:43.972Z,45.23
2018-06-08T22:25:12.963Z,39.83
2018-06-08T22:27:42.096Z,45.27
2018-06-08T22:30:11.037Z,44.70
2018-06-08T22:32:40.162Z,29.67
2018-06-08T22:35:09.069Z,43.63
2018-06-08T22:37:38.037Z,47.27
2018-06-08T22:40:07.885Z,40.27
2018-06-08T22:42:36.791Z,52.57
2018-06-08T22:45:05.805Z,55.70
2018-06-08T22:47:34.757Z,46.80
2018-06-08T22:50:03.799Z,37.83
2018-06-08T22:52:32.749Z,43.17
2018-06-08T22:55:01.846Z,44.57
2018-06-08T22:57:30.805Z,47.43
2018-06-08T22:59:59.809Z,39.33
2018-06-08T23:02:28.433Z,56.73
2018-06-08T23:04:57.167Z,45.33
2018-06-08T23:07:25.841Z,34.93
2018-06-08T23:09:54.527Z,56.33
2018-06-08T23:12:23.525Z,50.53
2018-06-08T23:14:52.501Z,42.47
2018-06-08T23:17:21.568Z,43.73
2018-06-08T23:19:50.553Z,49.87
2018-06-08T23:22:19.707Z,42.23
2018-06-08T23:24:48.647Z,40.80
2018-06-08T23:27:17.800Z,39.00
2018-06-08T23:29:46.746Z,44.60
2018-06-08T23:32:15.973Z,48.90
2018-06-08T23:34:45.075Z,45.20
2018-06-08T23:37:14.489Z,33.73
2018-06-08T23:39:43.443Z,44.40
2018-06-08T23:42:12.474Z,41.73
2018-06-08T23:44:41.585Z,41.43
2018-06-08T23:47:10.708Z,30.10
2018-06-08T23:49:39.702Z,43.93
2018-06-08T23:52:08.786Z,36.73
2018-06-08T23:54:37.968Z,36.90
2018-06-08T23:57:06.963Z,44.17
2018-06-08T23:59:35.973Z,43.23
